Time;durP1;ratioP1;P1;durP2;ratioP2;P2;SDS_P1;SDS_P2;PMS_P1;PMS_P2;Temp;Humidity;BMP_temperature;BMP_pressure;BME280_temperature;BME280_humidity;BME280_pressure;Samples;Min_cycle;Max_cycle;Signal;HPM_P1;HPM_P2
2022/10/23 00:00:57;;;;;;;6.05;3.42;;;19.40;99.90;;;;;;4145709;28;20303;-76
2022/10/23 00:02:59;;;;;;;4.90;3.90;;;19.40;99.90;;;;;;4128778;28;20284;-77
2022/10/23 00:05:02;;;;;;;4.93;3.50;;;19.40;99.90;;;;;;4145539;28;20221;-76
2022/10/23 00:07:05;;;;;;;6.63;3.97;;;19.40;99.90;;;;;;4146655;28;20724;-76
2022/10/23 00:09:11;;;;;;;6.32;4.07;;;19.40;99.90;;;;;;4148259;28;20303;-76
2022/10/23 00:11:16;;;;;;;7.05;3.88;;;19.40;99.90;;;;;;4148428;28;20305;-77
2022/10/23 00:13:18;;;;;;;8.07;4.00;;;19.40;99.90;;;;;;4148838;28;20310;-76
2022/10/23 00:15:22;;;;;;;6.55;4.05;;;19.50;99.90;;;;;;4148261;28;20225;-76
2022/10/23 00:17:25;;;;;;;5.25;3.67;;;19.40;99.90;;;;;;4148722;28;20722;-76
2022/10/23 00:19:27;;;;;;;6.22;3.92;;;19.40;99.90;;;;;;4148251;28;20264;-76
2022/10/23 00:21:29;;;;;;;5.15;3.40;;;19.40;99.90;;;;;;4144357;28;20226;-76
2022/10/23 00:23:33;;;;;;;5.57;3.42;;;19.40;99.90;;;;;;4145682;28;20275;-77
2022/10/23 00:25:37;;;;;;;5.72;3.30;;;19.40;99.90;;;;;;4148033;28;20322;-76
2022/10/23 00:27:39;;;;;;;6.20;3.58;;;19.40;99.90;;;;;;4147980;28;20475;-77
2022/10/23 00:29:43;;;;;;;5.95;3.83;;;19.40;99.90;;;;;;4147896;28;20237;-77
2022/10/23 00:31:46;;;;;;;4.90;2.95;;;19.40;99.90;;;;;;4148072;28;20268;-76
2022/10/23 00:33:48;;;;;;;4.30;3.35;;;19.40;99.90;;;;;;4148448;28;20252;-77
2022/10/23 00:35:50;;;;;;;6.53;3.45;;;19.50;99.90;;;;;;4147866;28;20229;-77
2022/10/23 00:37:53;;;;;;;8.15;3.72;;;19.40;99.90;;;;;;4148140;28;20271;-77
2022/10/23 00:39:58;;;;;;;5.50;3.35;;;19.40;99.90;;;;;;4148083;28;20217;-76
2022/10/23 00:42:00;;;;;;;4.95;3.42;;;19.40;99.90;;;;;;4147795;28;20229;-76
2022/10/23 00:44:09;;;;;;;6.70;3.65;;;19.40;99.90;;;;;;4147966;28;20221;-76
2022/10/23 00:46:11;;;;;;;6.72;3.95;;;19.40;99.90;;;;;;4148098;28;20255;-77
2022/10/23 00:48:13;;;;;;;6.22;4.07;;;19.40;99.90;;;;;;4147933;28;20282;-76
2022/10/23 00:50:16;;;;;;;8.43;3.63;;;19.40;99.90;;;;;;4147893;28;20709;-77
2022/10/23 00:52:18;;;;;;;5.63;3.50;;;19.40;99.90;;;;;;4148162;28;20598;-77
2022/10/23 00:54:25;;;;;;;5.22;3.53;;;19.40;99.90;;;;;;4147877;28;20225;-77
2022/10/23 00:56:30;;;;;;;4.43;3.22;;;19.40;99.90;;;;;;4147423;28;20221;-76
2022/10/23 00:58:32;;;;;;;7.18;3.75;;;19.40;99.90;;;;;;4147710;28;20267;-77
2022/10/23 01:00:43;;;;;;;4.53;3.33;;;19.40;99.90;;;;;;4144824;28;20248;-76
2022/10/23 01:02:46;;;;;;;5.13;3.20;;;19.40;99.90;;;;;;4147740;28;20268;-77
2022/10/23 01:04:48;;;;;;;4.65;3.42;;;19.40;99.90;;;;;;4147685;28;20276;-77
2022/10/23 01:06:59;;;;;;;7.53;3.30;;;19.40;99.90;;;;;;4147657;28;20225;-77
2022/10/23 01:09:08;;;;;;;6.38;3.35;;;19.40;99.90;;;;;;4147480;28;20245;-77
2022/10/23 01:11:14;;;;;;;5.07;3.88;;;19.40;99.90;;;;;;4147499;28;20258;-77
2022/10/23 01:13:33;;;;;;;4.90;3.45;;;19.40;99.90;;;;;;4147882;28;20221;-77
2022/10/23 01:15:43;;;;;;;5.45;3.53;;;19.40;99.90;;;;;;4147709;28;20221;-77
2022/10/23 01:17:48;;;;;;;6.65;3.38;;;19.40;99.90;;;;;;4147870;28;20240;-77
2022/10/23 01:20:01;;;;;;;6.43;3.50;;;19.40;99.90;;;;;;4147773;28;20267;-77
2022/10/23 01:22:20;;;;;;;4.18;3.50;;;19.40;99.90;;;;;;4140362;28;20222;-76
2022/10/23 01:24:46;;;;;;;5.07;3.65;;;19.40;99.90;;;;;;4147332;28;20278;-76
2022/10/23 01:27:01;;;;;;;4.60;3.05;;;19.40;99.90;;;;;;4147462;28;20217;-77
2022/10/23 01:29:09;;;;;;;5.47;3.55;;;19.40;99.90;;;;;;4146841;28;20228;-77
2022/10/23 01:31:17;;;;;;;5.13;3.20;;;19.40;99.90;;;;;;4147255;28;20275;-76
2022/10/23 01:33:25;;;;;;;4.75;3.25;;;19.40;99.90;;;;;;4147272;28;20340;-76
2022/10/23 01:35:31;;;;;;;4.45;3.50;;;19.40;99.90;;;;;;4135513;28;20283;-77
2022/10/23 01:37:41;;;;;;;5.75;3.38;;;19.40;99.90;;;;;;4147432;28;20224;-77
2022/10/23 01:39:48;;;;;;;4.72;3.22;;;19.40;99.90;;;;;;4146851;28;20216;-77
2022/10/23 01:41:54;;;;;;;4.13;2.90;;;19.40;99.90;;;;;;4147177;28;20228;-77
2022/10/23 01:44:01;;;;;;;4.00;2.83;;;19.40;99.90;;;;;;4146936;28;20320;-77
2022/10/23 01:46:08;;;;;;;4.70;3.67;;;19.40;99.90;;;;;;4139475;28;20519;-77
2022/10/23 01:48:17;;;;;;;5.45;3.45;;;19.40;99.90;;;;;;4138790;28;20221;-76
2022/10/23 01:50:23;;;;;;;6.68;3.35;;;19.30;99.90;;;;;;4146928;28;20240;-77
2022/10/23 01:52:25;;;;;;;4.80;3.40;;;19.40;99.90;;;;;;4146848;28;20279;-77
2022/10/23 01:54:31;;;;;;;6.43;3.88;;;19.40;99.90;;;;;;4146557;28;20279;-77
2022/10/23 01:56:37;;;;;;;4.35;3.17;;;19.30;99.90;;;;;;4147052;28;20224;-77
2022/10/23 01:58:42;;;;;;;6.30;3.67;;;19.40;99.90;;;;;;4146617;28;20275;-77
2022/10/23 02:00:46;;;;;;;3.95;3.03;;;19.40;99.90;;;;;;4146484;28;20277;-77
2022/10/23 02:02:52;;;;;;;4.97;3.63;;;19.40;99.90;;;;;;4147105;28;20221;-77
2022/10/23 02:04:58;;;;;;;5.43;3.35;;;19.30;99.90;;;;;;4147105;28;20283;-77
2022/10/23 02:07:01;;;;;;;5.82;3.70;;;19.40;99.90;;;;;;4147322;28;20279;-77
2022/10/23 02:09:04;;;;;;;4.03;3.30;;;19.40;99.90;;;;;;4147559;28;20268;-77
2022/10/23 02:11:10;;;;;;;5.10;3.20;;;19.30;99.90;;;;;;4147164;28;20303;-77
2022/10/23 02:13:19;;;;;;;5.50;3.35;;;19.30;99.90;;;;;;4147427;28;20303;-77
2022/10/23 02:15:28;;;;;;;4.70;3.20;;;19.30;99.90;;;;;;4147452;28;20275;-77
2022/10/23 02:17:37;;;;;;;5.70;3.00;;;19.40;99.90;;;;;;4146778;28;20216;-76
2022/10/23 02:19:49;;;;;;;5.65;3.53;;;19.40;99.90;;;;;;4146842;28;20217;-76
2022/10/23 02:21:55;;;;;;;5.82;3.22;;;19.40;99.90;;;;;;4144591;28;20228;-76
2022/10/23 02:24:03;;;;;;;4.65;3.17;;;19.40;99.90;;;;;;4146497;28;20225;-76
2022/10/23 02:26:10;;;;;;;4.78;3.35;;;19.30;99.90;;;;;;4146506;28;20648;-76
2022/10/23 02:28:15;;;;;;;5.28;3.35;;;19.30;99.90;;;;;;4146836;28;20229;-76
2022/10/23 02:30:19;;;;;;;4.82;3.50;;;19.40;99.90;;;;;;4145785;28;20244;-76
2022/10/23 02:32:26;;;;;;;6.50;3.58;;;19.30;99.90;;;;;;4146283;28;20279;-76
2022/10/23 02:34:28;;;;;;;6.38;3.65;;;19.30;99.90;;;;;;4146352;28;20665;-76
2022/10/23 02:36:32;;;;;;;4.57;3.25;;;19.30;99.90;;;;;;4146027;28;20216;-76
2022/10/23 02:38:39;;;;;;;4.15;3.05;;;19.30;99.90;;;;;;4146371;28;20217;-77
2022/10/23 02:40:43;;;;;;;6.40;3.53;;;19.30;99.90;;;;;;4146487;28;20240;-77
2022/10/23 02:42:54;;;;;;;5.20;3.03;;;19.30;99.90;;;;;;4146037;28;20342;-77
2022/10/23 02:45:05;;;;;;;5.10;3.17;;;19.30;99.90;;;;;;4146216;28;20272;-77
2022/10/23 02:47:31;;;;;;;5.63;3.30;;;19.30;99.90;;;;;;4144402;28;20270;-77
2022/10/23 02:49:41;;;;;;;5.45;3.45;;;19.40;99.90;;;;;;4134946;28;20373;-77
2022/10/23 02:51:57;;;;;;;5.82;3.17;;;19.30;99.90;;;;;;4146127;28;20225;-76
2022/10/23 02:54:06;;;;;;;5.05;3.20;;;19.30;99.90;;;;;;4146335;28;20232;-76
2022/10/23 02:56:15;;;;;;;4.57;3.30;;;19.30;99.90;;;;;;4146302;28;20638;-76
2022/10/23 02:58:24;;;;;;;3.90;3.17;;;19.30;99.90;;;;;;4146430;28;20225;-76
2022/10/23 03:00:29;;;;;;;3.72;2.78;;;19.30;99.90;;;;;;4145641;28;20221;-76
2022/10/23 03:02:37;;;;;;;5.38;2.80;;;19.30;99.90;;;;;;4146949;28;20228;-76
2022/10/23 03:04:42;;;;;;;5.03;3.15;;;19.30;99.90;;;;;;4146890;28;20323;-76
2022/10/23 03:06:47;;;;;;;7.10;3.75;;;19.40;99.90;;;;;;4146509;28;20287;-76
2022/10/23 03:08:52;;;;;;;5.40;3.20;;;19.30;99.90;;;;;;4146720;28;20251;-77
2022/10/23 03:10:55;;;;;;;4.80;2.92;;;19.30;99.90;;;;;;4146257;28;20645;-76
2022/10/23 03:12:57;;;;;;;4.97;3.35;;;19.30;99.90;;;;;;4146619;28;20683;-77
2022/10/23 03:14:59;;;;;;;4.40;3.28;;;19.30;99.90;;;;;;4146680;28;20615;-76
2022/10/23 03:17:02;;;;;;;5.60;3.42;;;19.30;99.90;;;;;;4146107;28;20632;-77
2022/10/23 03:19:04;;;;;;;4.22;3.20;;;19.30;99.90;;;;;;4146768;28;20225;-77
2022/10/23 03:21:06;;;;;;;4.57;2.95;;;19.30;99.90;;;;;;4145785;28;20216;-77
2022/10/23 03:23:13;;;;;;;4.05;3.08;;;19.30;99.90;;;;;;4143689;28;20221;-76
2022/10/23 03:25:15;;;;;;;4.72;3.80;;;19.30;99.90;;;;;;4146070;28;20233;-76
2022/10/23 03:27:17;;;;;;;4.95;3.10;;;19.30;99.90;;;;;;4145807;28;20263;-76
2022/10/23 03:29:20;;;;;;;4.28;3.30;;;19.40;99.90;;;;;;4145821;28;20267;-77
2022/10/23 03:31:22;;;;;;;4.72;3.30;;;19.30;99.90;;;;;;4145796;28;20272;-77
2022/10/23 03:33:24;;;;;;;5.18;3.40;;;19.30;99.90;;;;;;4146088;28;20217;-76
2022/10/23 03:35:27;;;;;;;4.60;3.45;;;19.30;99.90;;;;;;4141006;28;20613;-77
2022/10/23 03:37:29;;;;;;;4.13;3.00;;;19.30;99.90;;;;;;4145875;28;20217;-77
2022/10/23 03:39:33;;;;;;;4.78;3.40;;;19.30;99.90;;;;;;4146013;28;20273;-76
2022/10/23 03:41:35;;;;;;;4.45;3.40;;;19.30;99.90;;;;;;4145930;28;20221;-77
2022/10/23 03:43:37;;;;;;;4.18;3.50;;;19.30;99.90;;;;;;4148918;28;20224;-77
2022/10/23 03:45:42;;;;;;;4.40;3.20;;;19.30;99.90;;;;;;4149177;28;20251;-77
2022/10/23 03:47:45;;;;;;;4.53;3.13;;;19.30;99.90;;;;;;4149074;28;20980;-77
2022/10/23 03:49:47;;;;;;;4.15;3.17;;;19.30;99.90;;;;;;4149356;28;20629;-76
2022/10/23 03:51:51;;;;;;;4.18;3.13;;;19.30;99.90;;;;;;4149108;28;20245;-77
2022/10/23 03:53:53;;;;;;;6.13;3.35;;;19.30;99.90;;;;;;4149065;28;20221;-77
2022/10/23 03:55:57;;;;;;;5.40;3.20;;;19.30;99.90;;;;;;4148927;28;20282;-77
2022/10/23 03:57:59;;;;;;;5.00;3.10;;;19.30;99.90;;;;;;4149016;28;20225;-77
2022/10/23 04:00:01;;;;;;;4.50;2.85;;;19.30;99.90;;;;;;4148904;28;20320;-77
2022/10/23 04:02:04;;;;;;;3.78;2.65;;;19.30;99.90;;;;;;4148938;28;20241;-76
2022/10/23 04:04:06;;;;;;;5.20;3.05;;;19.30;99.90;;;;;;4148918;28;20324;-77
2022/10/23 04:06:09;;;;;;;4.10;3.05;;;19.30;99.90;;;;;;4149068;28;20252;-77
2022/10/23 04:08:11;;;;;;;5.18;3.20;;;19.30;99.90;;;;;;4148891;28;20332;-77
2022/10/23 04:10:13;;;;;;;5.15;3.20;;;19.30;99.90;;;;;;4149110;28;20278;-77
2022/10/23 04:12:17;;;;;;;3.15;2.60;;;19.30;99.90;;;;;;4148908;28;20286;-77
2022/10/23 04:14:19;;;;;;;4.03;2.90;;;19.30;99.90;;;;;;4149300;28;20216;-77
2022/10/23 04:16:22;;;;;;;5.15;3.15;;;19.30;99.90;;;;;;4148883;28;20221;-77
2022/10/23 04:18:25;;;;;;;3.60;2.85;;;19.30;99.90;;;;;;4148941;28;20268;-76
2022/10/23 04:20:27;;;;;;;5.15;3.25;;;19.30;99.90;;;;;;4148644;28;20217;-76
2022/10/23 04:22:29;;;;;;;3.40;2.67;;;19.30;99.90;;;;;;4136704;28;20598;-76
2022/10/23 04:24:31;;;;;;;4.93;3.00;;;19.30;99.90;;;;;;4147429;28;20256;-76
2022/10/23 04:26:34;;;;;;;3.40;2.80;;;19.30;99.90;;;;;;4148790;28;20221;-77
2022/10/23 04:28:38;;;;;;;3.80;2.60;;;19.30;99.90;;;;;;4148329;28;20271;-77
2022/10/23 04:30:40;;;;;;;4.60;3.15;;;19.30;99.90;;;;;;4148351;28;20228;-76
2022/10/23 04:32:42;;;;;;;4.10;3.13;;;19.30;99.90;;;;;;4148585;28;20228;-77
2022/10/23 04:34:45;;;;;;;4.22;2.70;;;19.30;99.90;;;;;;4148506;28;20229;-77
2022/10/23 04:36:47;;;;;;;5.68;3.33;;;19.30;99.90;;;;;;4148205;28;20221;-77
2022/10/23 04:38:49;;;;;;;5.28;3.25;;;19.30;99.90;;;;;;4148252;28;20217;-77
2022/10/23 04:40:52;;;;;;;4.00;2.85;;;19.30;99.90;;;;;;4148265;28;20213;-77
2022/10/23 04:42:54;;;;;;;3.88;2.92;;;19.30;99.90;;;;;;4148213;28;20618;-77
2022/10/23 04:44:57;;;;;;;3.97;2.60;;;19.30;99.90;;;;;;4148238;28;20724;-77
2022/10/23 04:47:00;;;;;;;4.95;2.78;;;19.30;99.90;;;;;;4147607;28;20228;-77
2022/10/23 04:49:02;;;;;;;4.35;2.83;;;19.30;99.90;;;;;;4147933;28;20650;-76
2022/10/23 04:51:06;;;;;;;4.05;2.83;;;19.30;99.90;;;;;;4148165;28;20248;-77
2022/10/23 04:53:09;;;;;;;5.28;3.00;;;19.30;99.90;;;;;;4147377;28;20221;-77
2022/10/23 04:55:12;;;;;;;4.10;2.90;;;19.30;99.90;;;;;;4147619;28;20220;-76
2022/10/23 04:57:14;;;;;;;4.32;2.55;;;19.30;99.90;;;;;;4147682;28;20264;-77
2022/10/23 04:59:16;;;;;;;4.18;2.65;;;19.30;99.90;;;;;;4147744;28;20323;-77
2022/10/23 05:01:20;;;;;;;4.45;2.78;;;19.30;99.90;;;;;;4147511;28;20287;-77
2022/10/23 05:03:24;;;;;;;3.50;2.45;;;19.30;99.90;;;;;;4147416;28;20229;-77
2022/10/23 05:05:26;;;;;;;3.90;2.67;;;19.30;99.90;;;;;;4148092;28;20225;-77
2022/10/23 05:07:28;;;;;;;3.65;2.45;;;19.20;99.90;;;;;;4147536;28;20225;-76
2022/10/23 05:09:31;;;;;;;3.88;2.53;;;19.30;99.90;;;;;;4147626;28;20263;-76
2022/10/23 05:11:33;;;;;;;6.15;2.92;;;19.30;99.90;;;;;;4147812;28;20248;-76
2022/10/23 05:13:35;;;;;;;4.50;2.75;;;19.30;99.90;;;;;;4147949;28;20689;-76
2022/10/23 05:15:37;;;;;;;2.60;2.30;;;19.30;99.90;;;;;;4148006;28;20281;-76
2022/10/23 05:17:45;;;;;;;4.03;2.85;;;19.30;99.90;;;;;;4147541;28;20225;-76
2022/10/23 05:19:51;;;;;;;4.55;2.75;;;19.30;99.90;;;;;;4148338;28;20220;-76
2022/10/23 05:21:55;;;;;;;3.67;2.60;;;19.30;99.90;;;;;;4139860;28;20210;-76
2022/10/23 05:23:59;;;;;;;2.85;2.50;;;19.30;99.90;;;;;;4146771;28;20229;-76
2022/10/23 05:26:02;;;;;;;3.08;2.35;;;19.30;99.90;;;;;;4147323;28;20225;-76
2022/10/23 05:28:04;;;;;;;3.53;2.47;;;19.30;99.90;;;;;;4146993;28;20735;-76
2022/10/23 05:30:07;;;;;;;4.20;2.80;;;19.30;99.90;;;;;;4147188;28;20271;-76
2022/10/23 05:32:12;;;;;;;2.95;2.42;;;19.30;99.90;;;;;;4134465;28;20245;-76
2022/10/23 05:34:18;;;;;;;4.13;2.45;;;19.20;99.90;;;;;;4142795;28;20225;-76
2022/10/23 05:36:22;;;;;;;4.43;2.80;;;19.30;99.90;;;;;;4133775;28;20256;-76
2022/10/23 05:38:24;;;;;;;3.22;2.50;;;19.30;99.90;;;;;;4139946;28;20605;-76
2022/10/23 05:40:27;;;;;;;3.63;2.55;;;19.20;99.90;;;;;;4139907;28;20962;-76
2022/10/23 05:42:29;;;;;;;5.05;3.08;;;19.30;99.90;;;;;;4143558;28;20214;-76
2022/10/23 05:44:31;;;;;;;4.82;2.78;;;19.30;99.90;;;;;;4143256;28;20209;-76
2022/10/23 05:46:33;;;;;;;3.97;2.58;;;19.30;99.90;;;;;;4139671;28;20608;-76
2022/10/23 05:48:36;;;;;;;4.03;2.53;;;19.30;99.90;;;;;;4147328;28;20295;-76
2022/10/23 05:50:39;;;;;;;4.45;2.70;;;19.30;99.90;;;;;;4147177;28;20729;-76
2022/10/23 05:52:42;;;;;;;4.53;2.70;;;19.30;99.90;;;;;;4146973;28;20241;-77
2022/10/23 05:54:44;;;;;;;4.82;2.65;;;19.30;99.90;;;;;;4147149;28;20636;-77
2022/10/23 05:56:46;;;;;;;3.22;2.45;;;19.30;99.90;;;;;;4146730;28;21334;-77
2022/10/23 05:58:48;;;;;;;3.88;2.60;;;19.30;99.90;;;;;;4146596;28;20228;-77
2022/10/23 06:00:51;;;;;;;3.53;2.40;;;19.30;99.90;;;;;;4146466;28;20241;-77
2022/10/23 06:02:53;;;;;;;4.13;2.55;;;19.20;99.90;;;;;;4146727;28;20213;-77
2022/10/23 06:04:55;;;;;;;4.05;2.63;;;19.20;99.90;;;;;;4146557;28;20282;-77
2022/10/23 06:06:59;;;;;;;5.00;2.72;;;19.30;99.90;;;;;;4146899;28;20280;-77
2022/10/23 06:09:01;;;;;;;3.95;2.40;;;19.30;99.90;;;;;;4146807;28;20279;-77
2022/10/23 06:11:08;;;;;;;2.67;2.33;;;19.20;99.90;;;;;;4146681;28;20618;-76
2022/10/23 06:13:10;;;;;;;3.88;2.33;;;19.20;99.90;;;;;;4146720;28;20735;-77
2022/10/23 06:15:12;;;;;;;3.33;2.22;;;19.20;99.90;;;;;;4146918;28;20271;-76
2022/10/23 06:17:15;;;;;;;3.47;2.33;;;19.30;99.90;;;;;;4146789;28;20248;-76
2022/10/23 06:19:17;;;;;;;3.78;2.72;;;19.30;99.90;;;;;;4147041;28;20213;-76
2022/10/23 06:21:20;;;;;;;2.88;2.58;;;19.30;99.90;;;;;;4144378;28;20639;-77
2022/10/23 06:23:23;;;;;;;4.13;2.60;;;19.30;99.90;;;;;;4137806;28;20213;-77
2022/10/23 06:25:26;;;;;;;4.25;2.70;;;19.30;99.90;;;;;;4141402;28;20683;-77
2022/10/23 06:27:28;;;;;;;3.45;2.47;;;19.20;99.90;;;;;;4146367;28;20225;-77
2022/10/23 06:29:30;;;;;;;2.65;2.25;;;19.30;99.90;;;;;;4146345;28;20586;-76
2022/10/23 06:31:32;;;;;;;3.05;2.30;;;19.20;99.90;;;;;;4146840;28;20307;-77
2022/10/23 06:33:35;;;;;;;3.15;2.38;;;19.30;99.90;;;;;;4146483;28;20225;-76
2022/10/23 06:35:37;;;;;;;3.13;2.33;;;19.20;99.90;;;;;;4145720;28;20625;-77
2022/10/23 06:37:39;;;;;;;3.00;2.70;;;19.20;99.90;;;;;;4146648;28;20628;-76
2022/10/23 06:39:43;;;;;;;3.28;2.55;;;19.20;99.90;;;;;;4146326;28;20267;-77
2022/10/23 06:41:45;;;;;;;3.65;2.42;;;19.20;99.90;;;;;;4146458;28;20263;-76
2022/10/23 06:43:48;;;;;;;3.53;2.35;;;19.20;99.90;;;;;;4146394;28;20286;-77
2022/10/23 06:45:50;;;;;;;3.40;2.47;;;19.20;99.90;;;;;;4146320;28;20220;-76
2022/10/23 06:47:53;;;;;;;3.15;2.35;;;19.20;99.90;;;;;;4146243;28;20221;-77
2022/10/23 06:49:55;;;;;;;2.85;2.15;;;19.30;99.90;;;;;;4146421;28;20700;-77
2022/10/23 06:51:57;;;;;;;3.78;2.50;;;19.20;99.90;;;;;;4145694;28;20224;-76
2022/10/23 06:54:00;;;;;;;3.42;2.47;;;19.20;99.90;;;;;;4146492;28;20727;-77
2022/10/23 06:56:05;;;;;;;2.95;2.50;;;19.20;99.90;;;;;;4146234;28;20616;-77
2022/10/23 06:58:09;;;;;;;3.72;2.55;;;19.20;99.90;;;;;;4146406;28;20266;-77
2022/10/23 07:00:13;;;;;;;3.92;2.42;;;19.20;99.90;;;;;;4146658;28;20279;-77
2022/10/23 07:02:15;;;;;;;3.10;2.33;;;19.20;99.90;;;;;;4129657;28;20238;-76
2022/10/23 07:04:17;;;;;;;3.05;2.58;;;19.20;99.90;;;;;;4130073;28;20226;-77
2022/10/23 07:06:20;;;;;;;3.35;2.72;;;19.30;99.90;;;;;;4130147;28;20654;-76
2022/10/23 07:08:22;;;;;;;3.13;2.25;;;19.20;99.90;;;;;;4129976;28;20267;-77
2022/10/23 07:10:25;;;;;;;2.85;2.30;;;19.20;99.90;;;;;;4130239;28;20226;-77
2022/10/23 07:12:29;;;;;;;3.50;2.30;;;19.20;99.90;;;;;;4130046;28;20292;-76
2022/10/23 07:14:31;;;;;;;3.85;2.55;;;19.30;99.90;;;;;;4130061;28;20221;-76
2022/10/23 07:16:34;;;;;;;4.32;2.28;;;19.20;99.90;;;;;;4132030;28;20666;-77
2022/10/23 07:18:36;;;;;;;3.58;2.28;;;19.20;99.90;;;;;;4133547;28;20226;-77
2022/10/23 07:20:38;;;;;;;3.10;2.58;;;19.20;99.90;;;;;;4133468;28;20654;-77
2022/10/23 07:22:40;;;;;;;3.05;2.15;;;19.30;99.90;;;;;;4133424;28;20217;-76
2022/10/23 07:24:43;;;;;;;3.47;2.50;;;19.30;99.90;;;;;;4128203;28;20217;-77
2022/10/23 07:26:45;;;;;;;3.47;2.30;;;19.20;99.90;;;;;;4133322;28;20725;-76
2022/10/23 07:28:53;;;;;;;2.85;2.15;;;19.30;99.90;;;;;;4133144;28;20248;-77
2022/10/23 07:30:57;;;;;;;3.15;2.20;;;19.30;99.90;;;;;;4133180;28;20225;-77
2022/10/23 07:32:59;;;;;;;3.28;2.40;;;19.20;99.90;;;;;;4132036;28;20287;-77
2022/10/23 07:35:01;;;;;;;3.80;2.50;;;19.20;99.90;;;;;;4129593;28;20218;-77
2022/10/23 07:37:04;;;;;;;3.20;2.08;;;19.30;99.90;;;;;;4132758;28;20213;-77
2022/10/23 07:39:06;;;;;;;3.22;2.15;;;19.30;99.90;;;;;;4133128;28;20221;-77
2022/10/23 07:41:09;;;;;;;3.40;2.50;;;19.30;99.90;;;;;;4133054;28;20229;-77
2022/10/23 07:43:11;;;;;;;3.83;2.28;;;19.30;99.90;;;;;;4132868;28;20280;-77
2022/10/23 07:45:15;;;;;;;2.42;2.10;;;19.30;99.90;;;;;;4132739;28;20280;-76
2022/10/23 07:47:17;;;;;;;3.85;2.00;;;19.30;99.90;;;;;;4133052;28;20225;-76
2022/10/23 07:49:19;;;;;;;5.15;2.20;;;19.30;99.90;;;;;;4132654;28;20287;-77
2022/10/23 07:51:22;;;;;;;2.75;2.00;;;19.30;99.90;;;;;;4132796;28;20279;-77
2022/10/23 07:53:25;;;;;;;3.50;2.00;;;19.30;99.90;;;;;;4132937;28;20617;-77
2022/10/23 07:55:27;;;;;;;3.45;2.58;;;19.30;99.90;;;;;;4132655;28;20299;-77
2022/10/23 07:57:30;;;;;;;3.42;2.13;;;19.30;99.90;;;;;;4132599;28;20324;-76
2022/10/23 07:59:32;;;;;;;5.25;2.97;;;19.30;99.90;;;;;;4132461;28;20620;-77
2022/10/23 08:01:38;;;;;;;3.30;2.65;;;19.30;99.90;;;;;;4142961;28;20283;-77
2022/10/23 08:03:41;;;;;;;4.10;2.40;;;19.30;99.90;;;;;;4148824;28;20244;-77
2022/10/23 08:05:43;;;;;;;3.17;2.42;;;19.30;99.90;;;;;;4148438;28;20229;-76
2022/10/23 08:07:45;;;;;;;2.80;2.10;;;19.30;99.90;;;;;;4149124;28;20553;-76
2022/10/23 08:09:47;;;;;;;2.53;2.15;;;19.30;99.90;;;;;;4148349;28;20237;-76
2022/10/23 08:11:50;;;;;;;4.05;2.63;;;19.30;99.90;;;;;;4148609;28;20217;-76
2022/10/23 08:13:53;;;;;;;3.35;2.03;;;19.30;99.90;;;;;;4148379;28;20747;-77
2022/10/23 08:15:55;;;;;;;2.97;2.38;;;19.30;99.90;;;;;;4148352;28;20275;-77
2022/10/23 08:17:59;;;;;;;3.90;2.13;;;19.30;99.90;;;;;;4148617;28;20981;-76
2022/10/23 08:20:01;;;;;;;3.42;2.35;;;19.30;99.90;;;;;;4148454;28;20213;-77
2022/10/23 08:22:03;;;;;;;3.35;2.20;;;19.30;99.90;;;;;;4148309;28;20265;-76
2022/10/23 08:24:06;;;;;;;3.13;2.17;;;19.30;99.90;;;;;;4147583;28;20620;-76
2022/10/23 08:26:09;;;;;;;3.63;2.17;;;19.30;99.90;;;;;;4148531;28;20224;-77
2022/10/23 08:28:12;;;;;;;2.63;2.00;;;19.30;99.90;;;;;;4147688;28;20221;-76
2022/10/23 08:30:14;;;;;;;3.85;2.40;;;19.30;99.90;;;;;;4148100;28;20646;-77
2022/10/23 08:32:16;;;;;;;3.10;2.20;;;19.30;99.90;;;;;;4148568;28;20225;-77
2022/10/23 08:34:20;;;;;;;2.50;1.98;;;19.30;99.90;;;;;;4148338;28;20241;-77
2022/10/23 08:36:24;;;;;;;3.05;2.72;;;19.30;99.90;;;;;;4147896;28;20263;-77
2022/10/23 08:38:26;;;;;;;3.03;2.28;;;19.30;99.90;;;;;;4148085;28;20241;-76
2022/10/23 08:40:29;;;;;;;3.05;1.98;;;19.30;99.90;;;;;;4147920;28;20213;-76
2022/10/23 08:42:31;;;;;;;4.22;2.30;;;19.30;99.90;;;;;;4148004;28;20217;-76
2022/10/23 08:44:44;;;;;;;3.15;2.00;;;19.30;99.90;;;;;;4148134;28;20221;-77
2022/10/23 08:46:53;;;;;;;2.47;2.10;;;19.30;99.90;;;;;;4147918;28;20220;-76
2022/10/23 08:49:01;;;;;;;3.25;2.45;;;19.30;99.90;;;;;;4147733;28;20570;-76
2022/10/23 08:51:11;;;;;;;4.00;2.42;;;19.30;99.90;;;;;;4148035;28;20220;-76
2022/10/23 08:53:18;;;;;;;2.75;2.17;;;19.30;99.90;;;;;;4148170;28;20295;-76
2022/10/23 08:55:26;;;;;;;3.05;2.03;;;19.30;99.90;;;;;;4148362;28;20615;-76
2022/10/23 08:57:34;;;;;;;2.67;2.08;;;19.30;99.90;;;;;;4148271;28;20649;-77
2022/10/23 08:59:41;;;;;;;3.38;2.58;;;19.30;99.90;;;;;;4147914;28;20975;-77
2022/10/23 09:01:49;;;;;;;2.72;2.20;;;19.30;99.90;;;;;;4147508;28;20240;-76
2022/10/23 09:03:51;;;;;;;4.10;2.22;;;19.30;99.90;;;;;;4147667;28;20208;-76
2022/10/23 09:06:05;;;;;;;2.70;1.92;;;19.30;99.90;;;;;;4147685;28;20248;-77
2022/10/23 09:08:30;;;;;;;2.35;1.80;;;19.30;99.90;;;;;;4147322;28;20291;-77
2022/10/23 09:10:51;;;;;;;2.78;2.00;;;19.30;99.90;;;;;;4147724;28;20225;-76
2022/10/23 09:12:57;;;;;;;2.70;2.10;;;19.30;99.90;;;;;;4147807;28;20221;-76
2022/10/23 09:15:16;;;;;;;2.58;1.83;;;19.30;99.90;;;;;;4147669;28;20241;-76
2022/10/23 09:17:24;;;;;;;2.67;2.10;;;19.30;99.90;;;;;;4147131;28;20225;-76
2022/10/23 09:19:28;;;;;;;3.20;2.35;;;19.30;99.90;;;;;;4147587;28;20275;-76
2022/10/23 09:21:30;;;;;;;2.97;2.13;;;19.30;99.90;;;;;;4142260;28;20264;-77
2022/10/23 09:23:34;;;;;;;2.40;2.10;;;19.30;99.90;;;;;;4144535;28;20599;-77
2022/10/23 09:25:39;;;;;;;2.65;2.00;;;19.30;99.90;;;;;;4147846;28;20221;-77
2022/10/23 09:27:46;;;;;;;3.17;2.05;;;19.30;99.90;;;;;;4147386;28;20225;-77
2022/10/23 09:29:51;;;;;;;2.78;1.80;;;19.30;99.90;;;;;;4147210;28;20275;-77
2022/10/23 09:31:55;;;;;;;2.10;1.90;;;19.30;99.90;;;;;;4147231;28;20628;-77
2022/10/23 09:34:00;;;;;;;3.40;2.15;;;19.30;99.90;;;;;;4147325;28;20249;-75
2022/10/23 09:36:05;;;;;;;3.72;2.03;;;19.30;99.90;;;;;;4146838;28;20263;-76
2022/10/23 09:38:29;;;;;;;2.67;2.00;;;19.30;99.90;;;;;;4147769;28;20225;-76
2022/10/23 09:40:40;;;;;;;2.80;2.47;;;19.30;99.90;;;;;;4146262;28;20217;-77
2022/10/23 09:42:52;;;;;;;2.80;2.03;;;19.30;99.90;;;;;;4147131;28;20213;-77
2022/10/23 09:44:56;;;;;;;3.88;1.85;;;19.30;99.90;;;;;;4147157;28;20271;-77
2022/10/23 09:47:00;;;;;;;3.58;2.22;;;19.40;99.90;;;;;;4147065;28;20229;-77
2022/10/23 09:49:03;;;;;;;2.53;2.00;;;19.30;99.90;;;;;;4146921;28;20275;-75
2022/10/23 09:51:17;;;;;;;2.88;2.35;;;19.40;99.90;;;;;;4147015;28;20221;-76
2022/10/23 09:53:26;;;;;;;3.45;2.10;;;19.40;99.90;;;;;;4146847;28;20712;-76
2022/10/23 09:55:29;;;;;;;3.58;2.20;;;19.40;99.90;;;;;;4147008;28;20653;-76
2022/10/23 09:57:37;;;;;;;3.25;2.00;;;19.40;99.90;;;;;;4133733;28;20665;-75
2022/10/23 09:59:40;;;;;;;3.47;2.08;;;19.40;99.90;;;;;;4146763;28;20629;-76
2022/10/23 10:01:47;;;;;;;2.65;2.00;;;19.40;99.90;;;;;;4146490;28;20240;-76
2022/10/23 10:03:51;;;;;;;2.67;2.20;;;19.40;99.90;;;;;;4146737;28;20611;-76
2022/10/23 10:05:57;;;;;;;2.63;2.05;;;19.40;99.90;;;;;;4146511;28;20567;-76
2022/10/23 10:08:04;;;;;;;3.83;2.38;;;19.40;99.90;;;;;;4146596;28;20225;-76
2022/10/23 10:10:14;;;;;;;3.42;2.30;;;19.40;99.90;;;;;;4146852;28;20228;-76
2022/10/23 10:12:38;;;;;;;3.92;2.05;;;19.50;99.90;;;;;;4146742;28;20587;-76
2022/10/23 10:15:00;;;;;;;2.85;2.00;;;19.40;99.90;;;;;;4143360;28;20645;-76
2022/10/23 10:17:07;;;;;;;2.10;1.75;;;19.40;99.90;;;;;;4146525;28;20258;-77
2022/10/23 10:19:25;;;;;;;3.03;2.25;;;19.40;99.90;;;;;;4146531;28;20229;-76
2022/10/23 10:21:31;;;;;;;2.40;2.10;;;19.50;99.90;;;;;;4146476;28;20217;-76
2022/10/23 10:23:44;;;;;;;2.58;2.10;;;19.50;99.90;;;;;;4139451;28;20670;-77
2022/10/23 10:25:54;;;;;;;2.55;2.10;;;19.50;99.90;;;;;;4146473;28;20229;-77
2022/10/23 10:28:07;;;;;;;3.25;2.05;;;19.40;99.90;;;;;;4146632;28;20228;-77
2022/10/23 10:30:15;;;;;;;3.83;2.17;;;19.50;99.90;;;;;;4146959;28;20217;-75
2022/10/23 10:32:31;;;;;;;3.17;2.15;;;19.50;99.90;;;;;;4147030;28;20271;-76
2022/10/23 10:34:46;;;;;;;2.70;2.40;;;19.50;99.90;;;;;;4146490;28;20244;-76
2022/10/23 10:36:53;;;;;;;2.53;1.95;;;19.50;99.90;;;;;;4147022;28;20263;-77
2022/10/23 10:38:59;;;;;;;2.80;2.30;;;19.50;99.90;;;;;;4146579;28;20263;-76
2022/10/23 10:41:27;;;;;;;2.42;2.00;;;19.50;99.90;;;;;;4146881;28;20266;-76
2022/10/23 10:43:39;;;;;;;3.90;2.50;;;19.50;99.90;;;;;;4144011;28;20263;-75
2022/10/23 10:45:46;;;;;;;3.22;2.00;;;19.50;99.90;;;;;;4146486;28;20633;-76
2022/10/23 10:48:03;;;;;;;2.60;2.38;;;19.60;99.90;;;;;;4146456;28;20279;-76
2022/10/23 10:50:15;;;;;;;2.75;2.00;;;19.60;99.90;;;;;;4146388;28;20253;-76
2022/10/23 10:52:24;;;;;;;2.50;2.15;;;19.60;99.90;;;;;;4146102;28;20240;-76